createdAt,value
2019-03-09T00:01:47.164Z,973.03
2019-03-09T00:02:47.403Z,972.93
2019-03-09T00:04:51.587Z,972.97
2019-03-09T00:05:51.781Z,972.98
2019-03-09T00:07:55.949Z,973.00
2019-03-09T00:08:56.187Z,973.06
2019-03-09T00:11:11.616Z,973.11
2019-03-09T00:12:11.853Z,973.02
2019-03-09T00:14:16.022Z,972.90
2019-03-09T00:15:16.258Z,972.95
2019-03-09T00:17:20.424Z,972.88
2019-03-09T00:18:20.660Z,972.98
2019-03-09T00:20:24.809Z,972.84
2019-03-09T00:21:25.041Z,972.84
2019-03-09T00:23:29.207Z,972.87
2019-03-09T00:24:29.447Z,972.86
2019-03-09T00:26:33.593Z,972.78
2019-03-09T00:27:33.833Z,972.82
2019-03-09T00:29:37.999Z,972.81
2019-03-09T00:30:38.238Z,972.86
2019-03-09T00:32:42.409Z,972.74
2019-03-09T00:33:42.646Z,972.74
2019-03-09T00:35:46.796Z,972.74
2019-03-09T00:36:47.031Z,972.81
2019-03-09T00:38:40.130Z,972.82
2019-03-09T00:39:40.369Z,972.82
2019-03-09T00:41:44.515Z,972.75
2019-03-09T00:42:44.763Z,972.71
2019-03-09T00:44:48.919Z,972.75
2019-03-09T00:45:49.149Z,972.77
2019-03-09T00:47:53.346Z,972.60
2019-03-09T00:48:53.567Z,972.69
2019-03-09T00:50:57.701Z,972.61
2019-03-09T00:51:57.938Z,972.65
2019-03-09T00:54:02.112Z,972.79
2019-03-09T00:55:02.344Z,972.49
2019-03-09T00:57:06.494Z,972.52
2019-03-09T00:58:06.725Z,972.43
2019-03-09T01:00:10.894Z,972.43
2019-03-09T01:01:11.135Z,972.29
2019-03-09T01:03:15.305Z,972.33
2019-03-09T01:04:15.543Z,972.34
2019-03-09T01:06:19.690Z,972.32
2019-03-09T01:07:19.929Z,972.32
2019-03-09T01:09:24.098Z,972.21
2019-03-09T01:10:24.333Z,972.11
2019-03-09T01:12:28.478Z,972.08
2019-03-09T01:13:28.713Z,972.08
2019-03-09T01:15:32.881Z,972.20
2019-03-09T01:16:33.140Z,972.04
2019-03-09T01:18:26.213Z,972.07
2019-03-09T01:19:26.451Z,972.05
2019-03-09T01:21:30.598Z,971.98
2019-03-09T01:22:30.833Z,971.99
2019-03-09T01:24:34.998Z,972.08
2019-03-09T01:25:35.236Z,972.00
2019-03-09T01:27:39.380Z,971.81
2019-03-09T01:28:39.624Z,971.88
2019-03-09T01:30:43.811Z,971.79
2019-03-09T01:31:44.029Z,971.78
2019-03-09T01:33:48.198Z,972.02
2019-03-09T01:34:48.427Z,971.67
2019-03-09T01:36:52.578Z,971.61
2019-03-09T01:37:52.814Z,971.44
2019-03-09T01:39:56.993Z,971.52
2019-03-09T01:40:57.230Z,971.35
2019-03-09T01:43:01.374Z,971.33
2019-03-09T01:44:01.608Z,971.28
2019-03-09T01:46:05.783Z,971.42
2019-03-09T01:47:06.026Z,971.27
2019-03-09T01:48:59.114Z,971.10
2019-03-09T01:49:59.351Z,971.22
2019-03-09T01:52:03.495Z,971.14
2019-03-09T01:53:03.739Z,971.09
2019-03-09T01:55:07.901Z,971.03
2019-03-09T01:56:08.138Z,970.80
2019-03-09T01:58:12.281Z,970.85
2019-03-09T01:59:12.527Z,970.94
2019-03-09T02:01:16.700Z,970.90
2019-03-09T02:02:16.950Z,970.67
2019-03-09T02:04:21.114Z,970.78
2019-03-09T02:05:21.358Z,970.78
2019-03-09T02:07:25.512Z,970.79
2019-03-09T02:08:25.735Z,970.83
2019-03-09T02:10:29.931Z,970.71
2019-03-09T02:11:30.166Z,970.72
2019-03-09T02:13:34.313Z,970.74
2019-03-09T02:14:34.551Z,970.65
2019-03-09T02:16:38.716Z,970.62
2019-03-09T02:17:38.951Z,970.63
2019-03-09T02:19:43.116Z,970.45
2019-03-09T02:20:43.353Z,970.49
2019-03-09T02:22:47.497Z,970.36
2019-03-09T02:23:47.733Z,970.31
2019-03-09T02:25:51.903Z,970.17
2019-03-09T02:26:52.138Z,970.10
2019-03-09T02:28:45.209Z,970.14
2019-03-09T02:29:45.444Z,970.15
2019-03-09T02:31:49.613Z,970.24
2019-03-09T02:32:49.855Z,970.26
2019-03-09T02:34:54.032Z,970.25
2019-03-09T02:35:54.277Z,970.15
2019-03-09T02:37:58.417Z,970.20
2019-03-09T02:38:58.654Z,970.24
2019-03-09T02:41:02.821Z,970.17
2019-03-09T02:42:03.057Z,970.16
2019-03-09T02:44:07.203Z,970.03
2019-03-09T02:45:07.442Z,970.04
2019-03-09T02:47:11.611Z,970.09
2019-03-09T02:48:11.849Z,970.03
2019-03-09T02:50:16.018Z,969.98
2019-03-09T02:51:16.252Z,969.88
2019-03-09T02:53:20.397Z,969.90
2019-03-09T02:54:20.638Z,970.20
2019-03-09T02:56:24.802Z,969.84
2019-03-09T02:57:25.042Z,969.94
2019-03-09T02:59:29.198Z,969.66
2019-03-09T03:00:29.415Z,969.69
2019-03-09T03:02:33.583Z,969.73
2019-03-09T03:03:33.820Z,969.63
2019-03-09T03:05:37.967Z,969.70
2019-03-09T03:06:38.220Z,969.77
2019-03-09T03:08:31.307Z,969.68
2019-03-09T03:09:31.537Z,969.41
2019-03-09T03:11:37.348Z,969.56
2019-03-09T03:12:35.941Z,969.54
2019-03-09T03:14:40.085Z,969.38
2019-03-09T03:15:40.324Z,969.52
2019-03-09T03:17:44.499Z,969.36
2019-03-09T03:18:44.749Z,969.31
2019-03-09T03:20:48.887Z,969.43
2019-03-09T03:21:49.128Z,969.64
2019-03-09T03:23:53.297Z,969.25
2019-03-09T03:24:53.571Z,969.32
2019-03-09T03:26:57.716Z,969.54
2019-03-09T03:27:57.953Z,969.11
2019-03-09T03:30:02.109Z,969.31
2019-03-09T03:31:02.355Z,969.52
2019-03-09T03:33:06.514Z,969.27
2019-03-09T03:34:06.761Z,969.20
2019-03-09T03:36:10.898Z,969.17
2019-03-09T03:37:11.135Z,969.18
2019-03-09T03:39:04.233Z,969.07
2019-03-09T03:40:04.483Z,969.33
2019-03-09T03:42:08.669Z,969.16
2019-03-09T03:43:08.893Z,969.24
2019-03-09T03:45:13.058Z,969.28
2019-03-09T03:46:13.293Z,969.26
2019-03-09T03:48:17.470Z,969.26
2019-03-09T03:49:17.718Z,969.05
2019-03-09T03:51:21.856Z,969.33
2019-03-09T03:52:22.096Z,969.20
2019-03-09T03:54:26.272Z,969.28
2019-03-09T03:55:26.548Z,968.64
2019-03-09T03:57:30.678Z,969.11
2019-03-09T03:58:30.919Z,969.43
2019-03-09T04:00:35.062Z,968.92
2019-03-09T04:01:35.296Z,969.29
2019-03-09T04:03:39.475Z,969.11
2019-03-09T04:04:39.709Z,969.17
2019-03-09T04:06:43.861Z,968.80
2019-03-09T04:07:44.098Z,969.23
2019-03-09T04:09:48.277Z,969.27
2019-03-09T04:10:48.504Z,969.14
2019-03-09T04:12:52.687Z,969.15
2019-03-09T04:13:52.915Z,968.93
2019-03-09T04:15:57.071Z,969.14
2019-03-09T04:16:57.298Z,969.18
2019-03-09T04:18:50.402Z,969.20
2019-03-09T04:19:50.638Z,969.25
2019-03-09T04:21:54.798Z,969.04
2019-03-09T04:22:55.031Z,969.30
2019-03-09T04:24:59.207Z,969.28
2019-03-09T04:25:59.450Z,969.13
2019-03-09T04:28:03.627Z,969.15
2019-03-09T04:29:03.864Z,969.14
2019-03-09T04:31:08.013Z,969.21
2019-03-09T04:32:08.252Z,969.24
2019-03-09T04:34:12.449Z,969.04
2019-03-09T04:35:12.675Z,969.22
2019-03-09T04:37:16.826Z,969.03
2019-03-09T04:38:17.059Z,969.15
2019-03-09T04:40:21.233Z,968.91
2019-03-09T04:41:21.464Z,969.09
2019-03-09T04:43:25.645Z,969.11
2019-03-09T04:44:27.232Z,969.21
2019-03-09T04:46:30.033Z,969.45
2019-03-09T04:47:30.267Z,969.24
2019-03-09T04:49:34.469Z,969.42
2019-03-09T04:50:34.684Z,969.27
2019-03-09T04:52:38.837Z,969.21
2019-03-09T04:53:39.089Z,969.12
2019-03-09T04:55:43.249Z,969.35
2019-03-09T04:56:43.483Z,969.38
2019-03-09T04:58:36.563Z,969.45
2019-03-09T04:59:36.804Z,969.22
2019-03-09T05:01:40.986Z,969.30
2019-03-09T05:02:41.217Z,969.32
2019-03-09T05:04:45.881Z,969.31
2019-03-09T05:05:46.117Z,969.38
2019-03-09T05:07:50.263Z,969.27
2019-03-09T05:08:50.495Z,969.22
2019-03-09T05:10:54.669Z,969.32
2019-03-09T05:11:54.904Z,969.40
2019-03-09T05:13:59.104Z,969.31
2019-03-09T05:14:59.319Z,969.35
2019-03-09T05:17:03.470Z,969.33
2019-03-09T05:18:03.710Z,969.42
2019-03-09T05:20:07.904Z,969.43
2019-03-09T05:21:08.142Z,969.34
2019-03-09T05:23:12.292Z,969.33
2019-03-09T05:24:12.531Z,969.22
2019-03-09T05:26:16.703Z,969.36
2019-03-09T05:27:16.942Z,969.38
2019-03-09T05:29:21.116Z,969.23
2019-03-09T05:30:21.352Z,969.20
2019-03-09T05:32:25.502Z,969.33
2019-03-09T05:33:25.747Z,969.21
2019-03-09T05:35:29.907Z,969.31
2019-03-09T05:36:30.164Z,969.28
2019-03-09T05:38:23.241Z,969.33
2019-03-09T05:39:23.478Z,969.37
2019-03-09T05:41:27.650Z,969.31
2019-03-09T05:42:27.887Z,969.26
2019-03-09T05:44:32.064Z,969.26
2019-03-09T05:45:32.304Z,969.41
2019-03-09T05:47:36.449Z,969.48
2019-03-09T05:48:36.688Z,969.30
2019-03-09T05:50:40.858Z,969.01
2019-03-09T05:51:41.091Z,969.31
2019-03-09T05:53:45.242Z,969.23
2019-03-09T05:54:45.479Z,969.22
2019-03-09T05:56:49.652Z,969.39
2019-03-09T05:57:49.887Z,969.31
2019-03-09T05:59:54.061Z,969.31
2019-03-09T06:00:54.296Z,969.36
2019-03-09T06:02:58.447Z,969.36
2019-03-09T06:04:00.246Z,969.41
2019-03-09T06:06:02.840Z,969.62
2019-03-09T06:07:03.078Z,969.26
2019-03-09T06:08:56.151Z,969.38
2019-03-09T06:09:56.387Z,969.26
2019-03-09T06:12:00.560Z,969.25
2019-03-09T06:13:00.794Z,969.28
2019-03-09T06:15:04.967Z,969.48
2019-03-09T06:16:05.208Z,969.60
2019-03-09T06:18:09.354Z,969.35
2019-03-09T06:19:09.587Z,969.54
2019-03-09T06:21:13.770Z,969.49
2019-03-09T06:22:14.007Z,969.55
2019-03-09T06:24:18.155Z,969.49
2019-03-09T06:25:18.390Z,969.45
2019-03-09T06:27:22.560Z,969.44
2019-03-09T06:28:22.798Z,969.52
2019-03-09T06:30:26.968Z,969.55
2019-03-09T06:31:27.203Z,969.46
2019-03-09T06:33:31.374Z,969.53
2019-03-09T06:34:31.597Z,969.49
2019-03-09T06:36:35.762Z,969.63
2019-03-09T06:37:36.000Z,969.73
2019-03-09T06:39:40.137Z,969.77
2019-03-09T06:40:40.376Z,969.70
2019-03-09T06:42:44.572Z,969.58
2019-03-09T06:43:44.799Z,969.60
2019-03-09T06:45:48.966Z,969.54
2019-03-09T06:46:50.123Z,969.78
2019-03-09T06:48:42.275Z,969.76
2019-03-09T06:49:42.511Z,969.90
2019-03-09T06:51:46.680Z,969.90
2019-03-09T06:52:46.914Z,969.96
2019-03-09T06:54:51.061Z,970.13
2019-03-09T06:55:51.304Z,970.11
2019-03-09T06:57:55.465Z,969.98
2019-03-09T06:58:55.712Z,970.07
2019-03-09T07:00:59.857Z,970.05
2019-03-09T07:02:00.093Z,970.16
2019-03-09T07:04:04.259Z,970.10
2019-03-09T07:05:04.490Z,970.27
2019-03-09T07:07:08.660Z,970.21
2019-03-09T07:08:08.895Z,970.24
2019-03-09T07:10:13.041Z,970.19
2019-03-09T07:11:13.281Z,970.40
2019-03-09T07:13:17.465Z,970.28
2019-03-09T07:14:17.695Z,970.22
2019-03-09T07:16:21.865Z,970.28
2019-03-09T07:17:22.105Z,970.35
2019-03-09T07:19:26.242Z,970.39
2019-03-09T07:20:26.477Z,970.38
2019-03-09T07:22:30.641Z,970.28
2019-03-09T07:23:30.878Z,970.40
2019-03-09T07:25:35.021Z,970.35
2019-03-09T07:26:35.257Z,970.56
2019-03-09T07:28:28.355Z,970.47
2019-03-09T07:29:28.589Z,970.42
2019-03-09T07:31:32.772Z,970.42
2019-03-09T07:32:33.010Z,970.37
2019-03-09T07:34:37.155Z,970.41
2019-03-09T07:35:37.394Z,970.42
2019-03-09T07:37:41.559Z,970.38
2019-03-09T07:38:41.790Z,970.47
2019-03-09T07:40:45.941Z,970.38
2019-03-09T07:41:46.202Z,970.49
2019-03-09T07:43:50.343Z,970.33
2019-03-09T07:44:50.583Z,970.52
2019-03-09T07:46:54.757Z,970.41
2019-03-09T07:47:54.994Z,970.61
2019-03-09T07:49:59.154Z,970.74
2019-03-09T07:50:59.388Z,970.77
2019-03-09T07:53:03.561Z,970.78
2019-03-09T07:54:03.797Z,970.90
2019-03-09T07:56:07.947Z,970.93
2019-03-09T07:57:08.180Z,970.91
2019-03-09T07:59:01.277Z,970.89
2019-03-09T08:00:01.514Z,970.77
2019-03-09T08:02:05.655Z,970.88
2019-03-09T08:03:05.894Z,971.04
2019-03-09T08:05:10.079Z,970.96
2019-03-09T08:06:10.334Z,971.13
2019-03-09T08:08:14.490Z,971.08
2019-03-09T08:09:14.725Z,971.07
2019-03-09T08:11:18.867Z,971.17
2019-03-09T08:12:19.107Z,970.92
2019-03-09T08:14:23.275Z,970.98
2019-03-09T08:15:23.573Z,971.07
2019-03-09T08:17:27.655Z,971.19
2019-03-09T08:18:27.888Z,971.15
2019-03-09T08:20:32.057Z,971.32
2019-03-09T08:21:32.297Z,971.41
2019-03-09T08:23:36.469Z,971.31
2019-03-09T08:24:36.706Z,971.39
2019-03-09T08:26:40.852Z,971.47
2019-03-09T08:27:41.088Z,971.52
2019-03-09T08:29:45.258Z,971.40
2019-03-09T08:30:45.529Z,971.42
2019-03-09T08:32:49.668Z,971.49
2019-03-09T08:33:49.906Z,971.50
2019-03-09T08:35:55.075Z,971.53
2019-03-09T08:36:55.315Z,971.39
2019-03-09T08:38:48.412Z,971.38
2019-03-09T08:39:48.647Z,971.41
2019-03-09T08:41:52.795Z,971.63
2019-03-09T08:42:53.032Z,971.45
2019-03-09T08:44:57.200Z,971.49
2019-03-09T08:45:57.436Z,971.54
2019-03-09T08:48:01.609Z,971.60
2019-03-09T08:49:01.840Z,971.64
2019-03-09T08:51:05.994Z,971.78
2019-03-09T08:52:06.231Z,971.73
2019-03-09T08:54:10.405Z,971.72
2019-03-09T08:55:10.650Z,971.77
2019-03-09T08:57:14.799Z,971.72
2019-03-09T08:58:15.035Z,971.60
2019-03-09T09:00:19.211Z,971.73
2019-03-09T09:01:19.449Z,971.77
2019-03-09T09:03:23.617Z,971.80
2019-03-09T09:04:23.854Z,971.65
2019-03-09T09:06:28.021Z,971.75
2019-03-09T09:07:28.261Z,971.70
2019-03-09T09:09:32.445Z,971.80
2019-03-09T09:10:32.691Z,971.74
2019-03-09T09:12:36.817Z,971.51
2019-03-09T09:13:37.057Z,971.51
2019-03-09T09:15:41.234Z,971.54
2019-03-09T09:16:41.478Z,971.50
2019-03-09T09:18:34.580Z,971.61
2019-03-09T09:19:34.816Z,971.50
2019-03-09T09:21:38.970Z,971.49
2019-03-09T09:22:39.252Z,971.46
2019-03-09T09:24:43.379Z,971.50
2019-03-09T09:25:43.620Z,971.47
2019-03-09T09:27:47.768Z,971.44
2019-03-09T09:28:48.006Z,971.43
2019-03-09T09:30:52.181Z,971.62
2019-03-09T09:31:52.419Z,971.49
2019-03-09T09:33:58.356Z,971.55
2019-03-09T09:34:56.828Z,971.52
2019-03-09T09:37:00.978Z,971.77
2019-03-09T09:38:01.219Z,971.86
2019-03-09T09:40:05.390Z,971.76
2019-03-09T09:41:05.631Z,971.56
2019-03-09T09:43:09.785Z,971.79
2019-03-09T09:44:10.028Z,971.76
2019-03-09T09:46:14.206Z,971.78
2019-03-09T09:47:14.446Z,971.72
2019-03-09T09:49:07.547Z,971.63
2019-03-09T09:50:07.784Z,971.56
2019-03-09T09:52:11.937Z,971.71
2019-03-09T09:53:12.176Z,971.74
2019-03-09T09:55:16.355Z,971.88
2019-03-09T09:56:16.602Z,971.64
2019-03-09T09:58:20.751Z,971.85
2019-03-09T09:59:21.013Z,971.83
2019-03-09T10:01:25.164Z,971.78
2019-03-09T10:02:25.404Z,971.77
2019-03-09T10:04:29.579Z,971.69
2019-03-09T10:05:29.817Z,971.72
2019-03-09T10:07:33.971Z,971.73
2019-03-09T10:08:34.208Z,971.45
2019-03-09T10:10:38.384Z,971.81
2019-03-09T10:11:38.609Z,971.66
2019-03-09T10:13:42.765Z,971.71
2019-03-09T10:14:43.001Z,971.67
2019-03-09T10:16:47.181Z,971.98
2019-03-09T10:17:47.424Z,971.58
2019-03-09T10:19:51.604Z,972.05
2019-03-09T10:20:51.848Z,971.89
2019-03-09T10:23:04.181Z,972.16
2019-03-09T10:23:56.236Z,972.09
2019-03-09T10:26:00.411Z,971.95
2019-03-09T10:27:00.648Z,971.98
2019-03-09T10:28:53.734Z,972.00
2019-03-09T10:29:53.973Z,972.13
2019-03-09T10:31:58.197Z,972.05
2019-03-09T10:32:58.383Z,972.09
2019-03-09T10:35:02.564Z,972.09
2019-03-09T10:36:02.806Z,972.17
2019-03-09T10:38:06.965Z,972.20
2019-03-09T10:39:07.238Z,972.17
2019-03-09T10:41:11.387Z,972.03
2019-03-09T10:42:11.625Z,972.10
2019-03-09T10:44:15.788Z,972.14
2019-03-09T10:45:16.025Z,972.03
2019-03-09T10:47:20.201Z,972.31
2019-03-09T10:48:20.441Z,972.12
2019-03-09T10:50:26.021Z,972.32
2019-03-09T10:51:24.864Z,971.94
2019-03-09T10:53:29.022Z,972.03
2019-03-09T10:54:35.907Z,972.02
2019-03-09T10:56:33.488Z,972.02
2019-03-09T10:57:33.675Z,972.13
2019-03-09T10:59:37.834Z,972.24
2019-03-09T11:00:38.072Z,972.14
2019-03-09T11:02:42.281Z,972.22
2019-03-09T11:03:42.547Z,972.07
2019-03-09T11:05:46.719Z,972.24
2019-03-09T11:06:46.954Z,972.27
2019-03-09T11:08:40.058Z,972.38
2019-03-09T11:09:40.300Z,972.19
2019-03-09T11:11:44.478Z,972.24
2019-03-09T11:12:44.720Z,972.20
2019-03-09T11:14:48.904Z,972.30
2019-03-09T11:15:49.140Z,972.37
2019-03-09T11:17:53.295Z,972.26
2019-03-09T11:18:53.534Z,972.35
2019-03-09T11:20:57.719Z,972.30
2019-03-09T11:21:57.957Z,972.25
2019-03-09T11:24:02.111Z,972.16
2019-03-09T11:25:03.753Z,972.22
2019-03-09T11:27:06.525Z,972.18
2019-03-09T11:28:06.765Z,972.01
2019-03-09T11:30:10.947Z,971.94
2019-03-09T11:31:11.186Z,972.31
2019-03-09T11:33:15.342Z,972.01
2019-03-09T11:34:15.576Z,971.96
2019-03-09T11:36:19.750Z,971.64
2019-03-09T11:37:19.999Z,971.72
2019-03-09T11:39:24.142Z,971.91
2019-03-09T11:40:24.378Z,971.90
2019-03-09T11:42:28.555Z,971.59
2019-03-09T11:43:28.795Z,971.14
2019-03-09T11:45:33.011Z,971.67
2019-03-09T11:46:33.226Z,971.73
2019-03-09T11:48:26.324Z,971.59
2019-03-09T11:49:26.551Z,971.71
2019-03-09T11:51:30.730Z,971.58
2019-03-09T11:52:30.962Z,971.82
2019-03-09T11:54:35.115Z,971.79
2019-03-09T11:55:35.354Z,971.72
2019-03-09T11:57:39.689Z,971.83
2019-03-09T11:58:40.060Z,971.52
2019-03-09T12:00:44.320Z,971.96
2019-03-09T12:01:44.703Z,971.69
2019-03-09T12:03:48.886Z,971.65
2019-03-09T12:04:49.128Z,971.54
2019-03-09T12:06:53.454Z,971.71
2019-03-09T12:07:53.833Z,971.66
2019-03-09T12:09:57.985Z,971.51
2019-03-09T12:10:58.226Z,971.75
2019-03-09T12:13:02.410Z,971.71
2019-03-09T12:14:02.640Z,971.85
2019-03-09T12:16:06.945Z,971.58
2019-03-09T12:17:12.732Z,971.72
2019-03-09T12:19:00.371Z,971.39
2019-03-09T12:20:00.617Z,971.97
2019-03-09T12:22:04.941Z,971.92
2019-03-09T12:23:05.333Z,971.84
2019-03-09T12:25:09.501Z,971.99
2019-03-09T12:26:09.747Z,971.85
2019-03-09T12:28:13.989Z,971.59
2019-03-09T12:29:14.319Z,972.03
2019-03-09T12:31:18.486Z,971.67
2019-03-09T12:32:18.732Z,971.74
2019-03-09T12:34:22.917Z,971.57
2019-03-09T12:35:23.162Z,971.58
2019-03-09T12:37:27.421Z,971.54
2019-03-09T12:38:27.662Z,971.50
2019-03-09T12:40:31.832Z,971.16
2019-03-09T12:41:32.072Z,971.27
2019-03-09T12:43:36.385Z,971.27
2019-03-09T12:44:36.796Z,971.29
2019-03-09T12:46:40.969Z,971.29
2019-03-09T12:47:41.212Z,971.33
2019-03-09T12:49:45.574Z,971.30
2019-03-09T12:50:45.705Z,971.04
2019-03-09T12:52:50.096Z,970.91
2019-03-09T12:53:50.107Z,970.57
2019-03-09T12:55:54.261Z,970.78
2019-03-09T12:56:54.505Z,970.67
2019-03-09T12:58:47.658Z,970.72
2019-03-09T12:59:47.892Z,970.52
2019-03-09T13:01:52.049Z,970.51
2019-03-09T13:02:52.288Z,970.78
2019-03-09T13:04:56.461Z,970.55
2019-03-09T13:05:56.752Z,970.38
2019-03-09T13:08:00.900Z,970.51
2019-03-09T13:09:01.140Z,970.66
2019-03-09T13:11:05.303Z,970.68
2019-03-09T13:12:05.544Z,970.29
2019-03-09T13:14:09.744Z,970.26
2019-03-09T13:15:09.958Z,970.47
2019-03-09T13:17:14.112Z,970.25
2019-03-09T13:18:14.352Z,970.03
2019-03-09T13:20:18.527Z,970.22
2019-03-09T13:21:18.765Z,969.96
2019-03-09T13:23:22.939Z,970.30
2019-03-09T13:24:23.183Z,970.16
2019-03-09T13:26:27.332Z,969.81
2019-03-09T13:27:27.572Z,969.75
2019-03-09T13:29:31.742Z,969.62
2019-03-09T13:30:31.984Z,969.77
2019-03-09T13:32:36.148Z,969.56
2019-03-09T13:33:36.390Z,969.80
2019-03-09T13:35:40.561Z,969.57
2019-03-09T13:36:40.803Z,969.51
2019-03-09T13:38:33.911Z,969.82
2019-03-09T13:39:34.149Z,969.68
2019-03-09T13:41:38.294Z,969.20
2019-03-09T13:42:38.538Z,969.43
2019-03-09T13:44:42.710Z,969.19
2019-03-09T13:45:42.952Z,969.24
2019-03-09T13:47:47.108Z,969.26
2019-03-09T13:48:47.348Z,969.09
2019-03-09T13:50:51.531Z,969.18
2019-03-09T13:51:51.773Z,969.24
2019-03-09T13:53:55.961Z,968.91
2019-03-09T13:54:56.204Z,968.74
2019-03-09T13:57:00.372Z,968.52
2019-03-09T13:58:00.609Z,968.91
2019-03-09T14:00:04.789Z,968.71
2019-03-09T14:01:05.145Z,968.72
2019-03-09T14:03:09.308Z,968.75
2019-03-09T14:04:09.553Z,968.64
2019-03-09T14:06:13.740Z,968.34
2019-03-09T14:07:13.983Z,968.30
2019-03-09T14:09:07.078Z,968.23
2019-03-09T14:10:07.325Z,968.28
2019-03-09T14:12:11.507Z,967.93
2019-03-09T14:13:11.750Z,967.90
2019-03-09T14:15:15.963Z,967.80
2019-03-09T14:16:16.177Z,968.27
2019-03-09T14:18:20.343Z,968.25
2019-03-09T14:19:20.586Z,968.32
2019-03-09T14:21:24.807Z,968.10
2019-03-09T14:22:25.014Z,967.99
2019-03-09T14:24:29.166Z,967.86
2019-03-09T14:25:29.411Z,967.86
2019-03-09T14:27:33.585Z,967.77
2019-03-09T14:28:33.830Z,967.63
2019-03-09T14:30:38.005Z,967.78
2019-03-09T14:31:38.247Z,967.63
2019-03-09T14:33:42.406Z,967.76
2019-03-09T14:34:42.643Z,967.65
2019-03-09T14:36:46.818Z,968.14
2019-03-09T14:37:47.065Z,967.62
2019-03-09T14:39:51.214Z,967.89
2019-03-09T14:40:51.451Z,967.89
2019-03-09T14:42:55.631Z,967.69
2019-03-09T14:43:55.873Z,967.27
2019-03-09T14:46:00.058Z,967.76
2019-03-09T14:47:00.297Z,967.58
2019-03-09T14:48:53.385Z,967.46
2019-03-09T14:49:53.677Z,967.48
2019-03-09T14:51:57.825Z,967.71
2019-03-09T14:52:58.113Z,967.09
2019-03-09T14:55:02.283Z,967.37
2019-03-09T14:56:02.518Z,967.14
2019-03-09T14:58:06.709Z,967.31
2019-03-09T14:59:06.956Z,967.16
2019-03-09T15:01:11.151Z,967.20
2019-03-09T15:02:11.387Z,967.38
2019-03-09T15:04:15.545Z,966.94
2019-03-09T15:05:15.796Z,966.84
2019-03-09T15:07:19.993Z,966.55
2019-03-09T15:08:20.255Z,966.72
2019-03-09T15:10:24.397Z,966.96
2019-03-09T15:11:24.642Z,966.44
2019-03-09T15:13:28.839Z,966.61
2019-03-09T15:14:29.084Z,966.67
2019-03-09T15:16:33.261Z,966.38
2019-03-09T15:17:33.528Z,966.71
2019-03-09T15:19:37.667Z,966.50
2019-03-09T15:20:37.912Z,966.57
2019-03-09T15:22:42.095Z,966.24
2019-03-09T15:23:42.338Z,966.54
2019-03-09T15:25:46.503Z,966.57
2019-03-09T15:26:46.766Z,966.50
2019-03-09T15:28:39.841Z,966.46
2019-03-09T15:29:40.083Z,966.46
2019-03-09T15:31:44.235Z,966.53
2019-03-09T15:32:44.485Z,966.72
2019-03-09T15:34:48.674Z,966.31
2019-03-09T15:35:48.910Z,966.45
2019-03-09T15:37:53.573Z,966.24
2019-03-09T15:38:53.811Z,966.40
2019-03-09T15:40:57.966Z,966.36
2019-03-09T15:41:58.206Z,966.53
2019-03-09T15:44:02.385Z,966.38
2019-03-09T15:45:02.628Z,966.34
2019-03-09T15:47:06.800Z,966.22
2019-03-09T15:48:07.039Z,966.42
2019-03-09T15:50:11.212Z,966.17
2019-03-09T15:51:11.448Z,966.05
2019-03-09T15:53:15.623Z,966.35
2019-03-09T15:54:15.863Z,966.13
2019-03-09T15:56:20.013Z,966.18
2019-03-09T15:57:20.249Z,966.19
2019-03-09T15:59:24.428Z,966.21
2019-03-09T16:00:24.661Z,966.07
2019-03-09T16:02:28.802Z,966.18
2019-03-09T16:03:29.049Z,966.08
2019-03-09T16:05:33.224Z,966.13
2019-03-09T16:06:33.460Z,965.80
2019-03-09T16:08:26.591Z,966.00
2019-03-09T16:09:26.796Z,965.94
2019-03-09T16:11:30.944Z,966.26
2019-03-09T16:12:31.182Z,965.82
2019-03-09T16:14:35.359Z,966.12
2019-03-09T16:15:35.600Z,966.14
2019-03-09T16:17:39.746Z,965.79
2019-03-09T16:18:39.991Z,965.44
2019-03-09T16:20:44.168Z,966.19
2019-03-09T16:21:44.408Z,966.09
2019-03-09T16:23:48.581Z,966.18
2019-03-09T16:24:48.822Z,965.72
2019-03-09T16:26:52.984Z,966.07
2019-03-09T16:27:53.208Z,966.04
2019-03-09T16:29:57.394Z,966.20
2019-03-09T16:30:57.642Z,966.18
2019-03-09T16:33:01.777Z,966.77
2019-03-09T16:34:02.024Z,966.43
2019-03-09T16:36:06.191Z,966.36
2019-03-09T16:37:06.430Z,966.73
2019-03-09T16:38:59.796Z,966.60
2019-03-09T16:39:59.807Z,966.52
2019-03-09T16:42:03.956Z,966.57
2019-03-09T16:43:04.199Z,966.69
2019-03-09T16:45:09.380Z,966.75
2019-03-09T16:46:09.615Z,966.68
2019-03-09T16:48:13.765Z,966.71
2019-03-09T16:49:14.002Z,966.62
2019-03-09T16:51:18.171Z,966.55
2019-03-09T16:52:18.406Z,966.46
2019-03-09T16:54:22.589Z,966.66
2019-03-09T16:55:22.826Z,966.41
2019-03-09T16:57:26.971Z,966.81
2019-03-09T16:58:27.207Z,966.75
2019-03-09T17:00:31.376Z,966.76
2019-03-09T17:01:31.615Z,966.74
2019-03-09T17:03:36.777Z,966.82
2019-03-09T17:04:37.013Z,966.90
2019-03-09T17:06:41.197Z,966.80
2019-03-09T17:07:41.425Z,966.71
2019-03-09T17:09:45.594Z,967.08
2019-03-09T17:10:45.828Z,967.21
2019-03-09T17:12:49.973Z,966.78
2019-03-09T17:13:50.209Z,967.30
2019-03-09T17:15:54.379Z,966.86
2019-03-09T17:16:54.627Z,966.91
2019-03-09T17:18:47.715Z,967.01
2019-03-09T17:19:47.954Z,967.06
2019-03-09T17:21:52.121Z,966.85
2019-03-09T17:22:52.369Z,966.87
2019-03-09T17:24:56.536Z,966.70
2019-03-09T17:25:56.775Z,967.00
2019-03-09T17:28:00.921Z,966.75
2019-03-09T17:29:01.159Z,966.79
2019-03-09T17:31:05.335Z,966.96
2019-03-09T17:32:05.577Z,967.07
2019-03-09T17:34:09.730Z,967.16
2019-03-09T17:35:09.961Z,967.22
2019-03-09T17:37:14.127Z,967.65
2019-03-09T17:38:14.375Z,967.60
2019-03-09T17:40:18.553Z,967.70
2019-03-09T17:41:18.797Z,967.31
2019-03-09T17:43:22.948Z,968.09
2019-03-09T17:44:23.187Z,967.70
2019-03-09T17:46:27.379Z,969.00
2019-03-09T17:47:27.606Z,968.33
2019-03-09T17:49:31.759Z,968.52
2019-03-09T17:50:31.996Z,968.65
2019-03-09T17:52:36.169Z,968.97
2019-03-09T17:53:36.408Z,969.15
2019-03-09T17:55:40.580Z,969.00
2019-03-09T17:56:40.821Z,969.19
2019-03-09T17:58:33.898Z,969.29
2019-03-09T17:59:34.132Z,969.51
2019-03-09T18:01:38.312Z,969.33
2019-03-09T18:02:38.538Z,969.46
2019-03-09T18:04:42.684Z,969.50
2019-03-09T18:05:42.920Z,969.60
2019-03-09T18:07:47.082Z,969.58
2019-03-09T18:08:47.318Z,969.55
2019-03-09T18:10:51.467Z,969.70
2019-03-09T18:11:51.703Z,969.88
2019-03-09T18:13:55.871Z,969.85
2019-03-09T18:14:56.107Z,969.74
2019-03-09T18:17:00.276Z,969.78
2019-03-09T18:18:00.514Z,969.87
2019-03-09T18:20:04.723Z,970.45
2019-03-09T18:21:04.999Z,970.63
2019-03-09T18:23:09.252Z,970.45
2019-03-09T18:24:09.489Z,970.70
2019-03-09T18:26:13.668Z,970.65
2019-03-09T18:27:13.906Z,970.57
2019-03-09T18:29:07.001Z,970.32
2019-03-09T18:30:07.241Z,970.57
2019-03-09T18:32:11.417Z,970.47
2019-03-09T18:33:11.656Z,970.43
2019-03-09T18:35:15.809Z,970.26
2019-03-09T18:36:16.052Z,970.58
2019-03-09T18:38:20.215Z,970.80
2019-03-09T18:39:20.455Z,970.24
2019-03-09T18:41:24.605Z,970.65
2019-03-09T18:42:24.841Z,970.64
2019-03-09T18:44:29.012Z,970.65
2019-03-09T18:45:29.351Z,970.60
2019-03-09T18:47:33.590Z,971.08
2019-03-09T18:48:33.825Z,971.00
2019-03-09T18:50:37.994Z,971.15
2019-03-09T18:51:38.233Z,971.01
2019-03-09T18:53:42.399Z,970.99
2019-03-09T18:54:42.630Z,971.17
2019-03-09T18:56:46.786Z,971.28
2019-03-09T18:57:47.029Z,971.44
2019-03-09T18:59:51.229Z,971.32
2019-03-09T19:00:51.507Z,971.11
2019-03-09T19:02:55.680Z,971.48
2019-03-09T19:03:55.949Z,971.44
2019-03-09T19:06:00.129Z,971.45